PWSweather.com
Personal Weather Stations
Station Observations
KNYSYRAC2
Fairmount Hills, Fairmount, NY 13219

Fairmount HillsFairmount, NY 13219

Lat: 43.03602, Lon: -76.247151

Elevation: 663

Station Type: Ambient Weather WS-2080

http://weather.cerchia.com

High Low Average
Temperature 80.9°F27.2°F 57.5°F14.2°F 69.8°F21.0°F
Dew Point 67.2°F19.6°F 52.7°F11.5°F 57.7°F14.3°F
Winds 5.2 mph SW8.4 mph SW Calm Calm 1.7 mph 2.7 mph
Wind Gusts 17.1 mph27.5 mph -- 5.8 mph9.3 mph
Humidity 86% 47% 67%
Pressure 29.99 in1015.60 in 29.80 in1009.10 in -
Precipitation 0.00 in0.00 in - -
Hour Temp Dew Point Humidity Winds Wind Gusts Pressure Precip Precip Rate Daily Precip Total
03:30 AM 58.7°F14.8°C 52.9°F11.6°C 81% 1.7 mph SW2.7 kmh SW 7.5 mph12.1 kmh 29.96 in1014.6 mb 0.00 in0.0 mm 0.00 in0.0 mm 0.00 in0.0 mm
03:45 AM 58.9°F14.9°C 53.1°F11.7°C 81% 3.1 mph SW5.0 kmh SW 6.7 mph10.8 kmh 29.96 in1014.6 mb 0.00 in0.0 mm 0.00 in0.0 mm 0.00 in0.0 mm
04:00 AM 58.5°F14.7°C 52.7°F11.5°C 81% 1.7 mph SE2.7 kmh SE 10.3 mph16.6 kmh 29.97 in1014.9 mb 0.00 in0.0 mm 0.00 in0.0 mm 0.00 in0.0 mm
04:15 AM 58.2°F14.6°C 52.7°F11.5°C 82% 2.5 mph ESE4.0 kmh ESE 10.3 mph16.6 kmh 29.97 in1014.9 mb 0.00 in0.0 mm 0.00 in0.0 mm 0.00 in0.0 mm
04:30 AM 57.5°F14.2°C 53.0°F11.7°C 85% 1.5 mph S2.4 kmh S 5.6 mph9.0 kmh 29.97 in1014.9 mb 0.00 in0.0 mm 0.00 in0.0 mm 0.00 in0.0 mm
04:45 AM 57.5°F14.2°C 53.3°F11.8°C 86% 1.4 mph SSE2.3 kmh SSE 6.7 mph10.8 kmh 29.97 in1014.9 mb 0.00 in0.0 mm 0.00 in0.0 mm 0.00 in0.0 mm
05:00 AM 57.5°F14.2°C 53.3°F11.8°C 86% 1.1 mph SE1.8 kmh SE 3.9 mph6.3 kmh 29.97 in1014.9 mb 0.00 in0.0 mm 0.00 in0.0 mm 0.00 in0.0 mm
05:15 AM 57.6°F14.2°C 53.5°F11.9°C 86% 0.8 mph SSE1.3 kmh SSE 2.8 mph4.5 kmh 29.97 in1014.9 mb 0.00 in0.0 mm 0.00 in0.0 mm 0.00 in0.0 mm
05:30 AM 57.6°F14.2°C 53.5°F11.9°C 86% 0.9 mph SSE1.4 kmh SSE 4.8 mph7.7 kmh 29.97 in1014.9 mb 0.00 in0.0 mm 0.00 in0.0 mm 0.00 in0.0 mm
05:45 AM 58.0°F14.4°C 53.5°F11.9°C 85% 1.0 mph S1.6 kmh S 4.8 mph7.7 kmh 29.97 in1014.9 mb 0.00 in0.0 mm 0.00 in0.0 mm 0.00 in0.0 mm
06:00 AM 58.2°F14.6°C 53.4°F11.9°C 84% 0.5 mph SE0.8 kmh SE 2.8 mph4.5 kmh 29.98 in1015.2 mb 0.00 in0.0 mm 0.00 in0.0 mm 0.00 in0.0 mm
06:15 AM 58.5°F14.7°C 53.4°F11.9°C 83% 0.4 mph SSE0.6 kmh SSE 2.8 mph4.5 kmh 29.98 in1015.2 mb 0.00 in0.0 mm 0.00 in0.0 mm 0.00 in0.0 mm
06:30 AM 58.7°F14.8°C 53.6°F12.0°C 83% 1.2 mph SE1.9 kmh SE 3.9 mph6.3 kmh 29.98 in1015.2 mb 0.00 in0.0 mm 0.00 in0.0 mm 0.00 in0.0 mm
06:45 AM 58.7°F14.8°C 53.9°F12.2°C 84% 0.9 mph SE1.4 kmh SE 2.8 mph4.5 kmh 29.98 in1015.2 mb 0.00 in0.0 mm 0.00 in0.0 mm 0.00 in0.0 mm
07:00 AM 59.1°F15.1°C 54.6°F12.6°C 85% 1.3 mph SSE2.1 kmh SSE 6.7 mph10.8 kmh 29.99 in1015.6 mb 0.00 in0.0 mm 0.00 in0.0 mm 0.00 in0.0 mm
07:15 AM 60.3°F15.7°C 55.5°F13.1°C 84% 1.0 mph SSE1.6 kmh SSE 4.8 mph7.7 kmh 29.98 in1015.2 mb 0.00 in0.0 mm 0.00 in0.0 mm 0.00 in0.0 mm
07:30 AM 61.4°F16.3°C 56.2°F13.4°C 83% 0.4 mph S0.6 kmh S 2.8 mph4.5 kmh 29.97 in1014.9 mb 0.00 in0.0 mm 0.00 in0.0 mm 0.00 in0.0 mm
07:45 AM 61.8°F16.6°C 55.2°F12.9°C 79% 2.1 mph SW3.4 kmh SW 5.6 mph9.0 kmh 29.98 in1015.2 mb 0.00 in0.0 mm 0.00 in0.0 mm 0.00 in0.0 mm
08:00 AM 63.4°F17.4°C 56.4°F13.6°C 78% 1.9 mph SW3.1 kmh SW 5.6 mph9.0 kmh 29.99 in1015.6 mb 0.00 in0.0 mm 0.00 in0.0 mm 0.00 in0.0 mm
08:15 AM 64.5°F18.1°C 57.5°F14.2°C 78% 1.5 mph SW2.4 kmh SW 5.6 mph9.0 kmh 29.99 in1015.6 mb 0.00 in0.0 mm 0.00 in0.0 mm 0.00 in0.0 mm
08:30 AM 65.2°F18.4°C 57.4°F14.1°C 76% 1.1 mph SW1.8 kmh SW 5.6 mph9.0 kmh 29.97 in1014.9 mb 0.00 in0.0 mm 0.00 in0.0 mm 0.00 in0.0 mm
08:45 AM 65.9°F18.8°C 57.4°F14.1°C 74% 0.3 mph SSE0.5 kmh SSE 2.0 mph3.2 kmh 29.98 in1015.2 mb 0.00 in0.0 mm 0.00 in0.0 mm 0.00 in0.0 mm
09:00 AM 66.5°F19.2°C 57.2°F14.0°C 72% 1.9 mph WSW3.1 kmh WSW 7.5 mph12.1 kmh 29.98 in1015.2 mb 0.00 in0.0 mm 0.00 in0.0 mm 0.00 in0.0 mm
09:15 AM 66.8°F19.3°C 56.7°F13.7°C 70% 2.2 mph WSW3.5 kmh WSW 5.6 mph9.0 kmh 29.98 in1015.2 mb 0.00 in0.0 mm 0.00 in0.0 mm 0.00 in0.0 mm
09:30 AM 67.2°F19.6°C 56.7°F13.7°C 69% 3.9 mph SW6.3 kmh SW 11.5 mph18.5 kmh 29.98 in1015.2 mb 0.00 in0.0 mm 0.00 in0.0 mm 0.00 in0.0 mm
09:45 AM 68.1°F20.1°C 57.1°F13.9°C 68% 3.9 mph WSW6.3 kmh WSW 12.3 mph19.8 kmh 29.97 in1014.9 mb 0.00 in0.0 mm 0.00 in0.0 mm 0.00 in0.0 mm
10:00 AM 68.6°F20.3°C 57.2°F14.0°C 67% 2.6 mph WSW4.2 kmh WSW 7.5 mph12.1 kmh 29.97 in1014.9 mb 0.00 in0.0 mm 0.00 in0.0 mm 0.00 in0.0 mm
10:15 AM 69.3°F20.7°C 56.6°F13.7°C 64% 4.0 mph SW6.4 kmh SW 10.3 mph16.6 kmh 29.97 in1014.9 mb 0.00 in0.0 mm 0.00 in0.0 mm 0.00 in0.0 mm
10:30 AM 69.9°F21.1°C 55.8°F13.2°C 61% 4.3 mph WSW6.9 kmh WSW 14.3 mph23.0 kmh 29.96 in1014.6 mb 0.00 in0.0 mm 0.00 in0.0 mm 0.00 in0.0 mm
10:45 AM 70.2°F21.2°C 55.2°F12.9°C 59% 5.2 mph SW8.4 kmh SW 13.4 mph21.6 kmh 29.97 in1014.9 mb 0.00 in0.0 mm 0.00 in0.0 mm 0.00 in0.0 mm
11:00 AM 71.1°F21.7°C 55.6°F13.1°C 58% 3.0 mph S4.8 kmh S 8.7 mph14.0 kmh 29.95 in1014.2 mb 0.00 in0.0 mm 0.00 in0.0 mm 0.00 in0.0 mm
11:15 AM 71.7°F22.1°C 54.6°F12.6°C 55% 3.5 mph WSW5.6 kmh WSW 9.5 mph15.3 kmh 29.95 in1014.2 mb 0.00 in0.0 mm 0.00 in0.0 mm 0.00 in0.0 mm
11:30 AM 71.5°F21.9°C 54.0°F12.2°C 54% 5.0 mph WSW8.0 kmh WSW 12.3 mph19.8 kmh 29.95 in1014.2 mb 0.00 in0.0 mm 0.00 in0.0 mm 0.00 in0.0 mm
11:45 AM 72.4°F22.4°C 54.8°F12.7°C 54% 2.1 mph WSW3.4 kmh WSW 7.5 mph12.1 kmh 29.94 in1013.9 mb 0.00 in0.0 mm 0.00 in0.0 mm 0.00 in0.0 mm
12:00 PM 73.3°F22.9°C 53.5°F11.9°C 50% 3.9 mph NW6.3 kmh NW 11.5 mph18.5 kmh 29.94 in1013.9 mb 0.00 in0.0 mm 0.00 in0.0 mm 0.00 in0.0 mm
12:15 PM 73.7°F23.2°C 54.4°F12.4°C 51% 2.0 mph WSW3.2 kmh WSW 6.7 mph10.8 kmh 29.95 in1014.2 mb 0.00 in0.0 mm 0.00 in0.0 mm 0.00 in0.0 mm
12:30 PM 73.7°F23.2°C 54.4°F12.4°C 51% 3.6 mph WSW5.8 kmh WSW 7.5 mph12.1 kmh 29.95 in1014.2 mb 0.00 in0.0 mm 0.00 in0.0 mm 0.00 in0.0 mm
12:45 PM 73.8°F23.2°C 55.1°F12.8°C 52% 2.9 mph WSW4.7 kmh WSW 8.7 mph14.0 kmh 29.95 in1014.2 mb 0.00 in0.0 mm 0.00 in0.0 mm 0.00 in0.0 mm
01:00 PM 74.6°F23.7°C 55.2°F12.9°C 51% 2.6 mph SW4.2 kmh SW 9.5 mph15.3 kmh 29.94 in1013.9 mb 0.00 in0.0 mm 0.00 in0.0 mm 0.00 in0.0 mm
01:15 PM 75.3°F24.1°C 54.8°F12.7°C 49% 4.0 mph SW6.4 kmh SW 12.3 mph19.8 kmh 29.94 in1013.9 mb 0.00 in0.0 mm 0.00 in0.0 mm 0.00 in0.0 mm
01:30 PM 75.3°F24.1°C 54.8°F12.7°C 49% 3.9 mph WSW6.3 kmh WSW 11.5 mph18.5 kmh 29.93 in1013.5 mb 0.00 in0.0 mm 0.00 in0.0 mm 0.00 in0.0 mm
01:45 PM 75.8°F24.3°C 54.1°F12.3°C 47% 3.2 mph WSW5.1 kmh WSW 7.5 mph12.1 kmh 29.93 in1013.5 mb 0.00 in0.0 mm 0.00 in0.0 mm 0.00 in0.0 mm
02:00 PM 74.7°F23.7°C 53.7°F12.1°C 48% 3.3 mph W5.3 kmh W 6.7 mph10.8 kmh 29.92 in1013.2 mb 0.00 in0.0 mm 0.00 in0.0 mm 0.00 in0.0 mm
02:15 PM 74.2°F23.4°C 54.9°F12.7°C 51% 2.8 mph S4.5 kmh S 6.7 mph10.8 kmh 29.91 in1012.9 mb 0.00 in0.0 mm 0.00 in0.0 mm 0.00 in0.0 mm
02:30 PM 73.7°F23.2°C 56.0°F13.3°C 54% 2.5 mph SW4.0 kmh SW 6.7 mph10.8 kmh 29.91 in1012.9 mb 0.00 in0.0 mm 0.00 in0.0 mm 0.00 in0.0 mm
02:45 PM 73.1°F22.8°C 57.0°F13.9°C 57% 0.8 mph SW1.3 kmh SW 4.8 mph7.7 kmh 29.89 in1012.2 mb 0.00 in0.0 mm 0.00 in0.0 mm 0.00 in0.0 mm
03:00 PM 73.1°F22.8°C 57.0°F13.9°C 57% 2.0 mph SW3.2 kmh SW 6.7 mph10.8 kmh 29.89 in1012.2 mb 0.00 in0.0 mm 0.00 in0.0 mm 0.00 in0.0 mm
03:15 PM 72.9°F22.7°C 56.8°F13.8°C 57% 1.4 mph SW2.3 kmh SW 5.6 mph9.0 kmh 29.88 in1011.9 mb 0.00 in0.0 mm 0.00 in0.0 mm 0.00 in0.0 mm
03:30 PM 72.8°F22.7°C 56.6°F13.7°C 57% 0.2 mph S0.3 kmh S 2.0 mph3.2 kmh 29.87 in1011.5 mb 0.00 in0.0 mm 0.00 in0.0 mm 0.00 in0.0 mm
03:45 PM 73.1°F22.8°C 57.5°F14.2°C 58% Calm Calm 0.8 mph1.3 kmh 29.87 in1011.5 mb 0.00 in0.0 mm 0.00 in0.0 mm 0.00 in0.0 mm
04:00 PM 75.3°F24.1°C 58.5°F14.7°C 56% 1.3 mph S2.1 kmh S 5.6 mph9.0 kmh 29.87 in1011.5 mb 0.00 in0.0 mm 0.00 in0.0 mm 0.00 in0.0 mm
04:15 PM 76.5°F24.7°C 58.7°F14.8°C 54% 1.6 mph WSW2.6 kmh WSW 3.9 mph6.3 kmh 29.86 in1011.2 mb 0.00 in0.0 mm 0.00 in0.0 mm 0.00 in0.0 mm
04:30 PM 75.8°F24.3°C 58.5°F14.7°C 55% 1.0 mph SSW1.6 kmh SSW 5.6 mph9.0 kmh 29.86 in1011.2 mb 0.00 in0.0 mm 0.00 in0.0 mm 0.00 in0.0 mm
04:45 PM 76.4°F24.7°C 59.5°F15.3°C 56% 0.7 mph N1.1 kmh N 2.8 mph4.5 kmh 29.86 in1011.2 mb 0.00 in0.0 mm 0.00 in0.0 mm 0.00 in0.0 mm
05:00 PM 76.9°F24.9°C 59.0°F15.0°C 54% 0.3 mph SW0.5 kmh SW 2.8 mph4.5 kmh 29.85 in1010.8 mb 0.00 in0.0 mm 0.00 in0.0 mm 0.00 in0.0 mm
05:15 PM 77.3°F25.2°C 59.8°F15.4°C 55% 0.1 mph SSW0.2 kmh SSW 2.0 mph3.2 kmh 29.84 in1010.5 mb 0.00 in0.0 mm 0.00 in0.0 mm 0.00 in0.0 mm
05:30 PM 77.1°F25.1°C 59.7°F15.4°C 55% Calm Calm 0.8 mph1.3 kmh 29.84 in1010.5 mb 0.00 in0.0 mm 0.00 in0.0 mm 0.00 in0.0 mm
05:45 PM 76.7°F24.8°C 60.3°F15.7°C 57% Calm Calm -- 29.84 in1010.5 mb 0.00 in0.0 mm 0.00 in0.0 mm 0.00 in0.0 mm
06:00 PM 77.1°F25.1°C 61.2°F16.2°C 58% Calm Calm 0.8 mph1.3 kmh 29.84 in1010.5 mb 0.00 in0.0 mm 0.00 in0.0 mm 0.00 in0.0 mm
06:15 PM 79.2°F26.2°C 61.7°F16.5°C 55% 0.2 mph ENE0.3 kmh ENE 2.8 mph4.5 kmh 29.84 in1010.5 mb 0.00 in0.0 mm 0.00 in0.0 mm 0.00 in0.0 mm
06:30 PM 80.9°F27.2°C 62.1°F16.7°C 53% 0.6 mph NE1.0 kmh NE 3.9 mph6.3 kmh 29.84 in1010.5 mb 0.00 in0.0 mm 0.00 in0.0 mm 0.00 in0.0 mm
06:45 PM 80.3°F26.8°C 60.5°F15.8°C 51% Calm Calm 0.8 mph1.3 kmh 29.83 in1010.2 mb 0.00 in0.0 mm 0.00 in0.0 mm 0.00 in0.0 mm
07:00 PM 78.9°F26.1°C 59.2°F15.1°C 51% Calm Calm 0.8 mph1.3 kmh 29.83 in1010.2 mb 0.00 in0.0 mm 0.00 in0.0 mm 0.00 in0.0 mm
07:15 PM 76.9°F24.9°C 60.0°F15.6°C 56% Calm Calm 0.8 mph1.3 kmh 29.83 in1010.2 mb 0.00 in0.0 mm 0.00 in0.0 mm 0.00 in0.0 mm
07:30 PM 75.1°F23.9°C 60.3°F15.7°C 60% Calm Calm 2.8 mph4.5 kmh 29.83 in1010.2 mb 0.00 in0.0 mm 0.00 in0.0 mm 0.00 in0.0 mm
07:45 PM 74.0°F23.3°C 61.1°F16.2°C 64% Calm Calm 0.8 mph1.3 kmh 29.82 in1009.8 mb 0.00 in0.0 mm 0.00 in0.0 mm 0.00 in0.0 mm
08:00 PM 73.7°F23.2°C 62.0°F16.7°C 67% Calm Calm -- 29.82 in1009.8 mb 0.00 in0.0 mm 0.00 in0.0 mm 0.00 in0.0 mm
08:15 PM 73.1°F22.8°C 61.5°F16.4°C 67% Calm Calm -- 29.81 in1009.5 mb 0.00 in0.0 mm 0.00 in0.0 mm 0.00 in0.0 mm
08:30 PM 72.8°F22.7°C 62.0°F16.7°C 69% 0.2 mph E0.3 kmh E 2.8 mph4.5 kmh 29.83 in1010.2 mb 0.00 in0.0 mm 0.00 in0.0 mm 0.00 in0.0 mm
08:45 PM 72.4°F22.4°C 62.1°F16.7°C 70% 0.5 mph NE0.8 kmh NE 4.8 mph7.7 kmh 29.82 in1009.8 mb 0.00 in0.0 mm 0.00 in0.0 mm 0.00 in0.0 mm
09:00 PM 72.0°F22.2°C 62.1°F16.7°C 71% Calm Calm -- 29.81 in1009.5 mb 0.00 in0.0 mm 0.00 in0.0 mm 0.00 in0.0 mm
09:15 PM 71.1°F21.7°C 62.0°F16.7°C 73% Calm Calm -- 29.81 in1009.5 mb 0.00 in0.0 mm 0.00 in0.0 mm 0.00 in0.0 mm
09:30 PM 70.4°F21.3°C 62.1°F16.7°C 75% Calm Calm -- 29.82 in1009.8 mb 0.00 in0.0 mm 0.00 in0.0 mm 0.00 in0.0 mm
09:45 PM 69.5°F20.8°C 61.6°F16.4°C 76% Calm Calm -- 29.82 in1009.8 mb 0.00 in0.0 mm 0.00 in0.0 mm 0.00 in0.0 mm
10:00 PM 69.3°F20.7°C 62.2°F16.8°C 78% Calm Calm -- 29.82 in1009.8 mb 0.00 in0.0 mm 0.00 in0.0 mm 0.00 in0.0 mm
10:15 PM 69.7°F20.9°C 63.6°F17.6°C 81% 0.8 mph SSW1.3 kmh SSW 5.6 mph9.0 kmh 29.82 in1009.8 mb 0.00 in0.0 mm 0.00 in0.0 mm 0.00 in0.0 mm
10:30 PM 71.5°F21.9°C 65.7°F18.7°C 82% 2.3 mph S3.7 kmh S 9.5 mph15.3 kmh 29.82 in1009.8 mb 0.00 in0.0 mm 0.00 in0.0 mm 0.00 in0.0 mm
10:45 PM 73.8°F23.2°C 66.9°F19.4°C 79% 4.3 mph SW6.9 kmh SW 14.3 mph23.0 kmh 29.81 in1009.5 mb 0.00 in0.0 mm 0.00 in0.0 mm 0.00 in0.0 mm
11:00 PM 74.9°F23.8°C 66.8°F19.3°C 76% 4.6 mph S7.4 kmh S 13.4 mph21.6 kmh 29.81 in1009.5 mb 0.00 in0.0 mm 0.00 in0.0 mm 0.00 in0.0 mm
11:15 PM 75.3°F24.1°C 67.2°F19.6°C 76% 4.6 mph SSW7.4 kmh SSW 17.1 mph27.5 kmh 29.80 in1009.1 mb 0.00 in0.0 mm 0.00 in0.0 mm 0.00 in0.0 mm
11:30 PM 75.1°F23.9°C 67.0°F19.4°C 76% 3.0 mph SE4.8 kmh SE 13.4 mph21.6 kmh 29.80 in1009.1 mb 0.00 in0.0 mm 0.00 in0.0 mm 0.00 in0.0 mm
11:45 PM 75.1°F23.9°C 67.0°F19.4°C 76% 3.7 mph S6.0 kmh S 9.5 mph15.3 kmh 29.80 in1009.1 mb 0.00 in0.0 mm 0.00 in0.0 mm 0.00 in0.0 mm